RYR378 EPSC-EPLB
Flight info
| Callsign | RYR378 |
|---|---|
| Flight time | N/A |
| Altitude | 35000 |
| Route | DRE DCT LAW DCT TLY DCT RDO DCT SWI |
| Aircraft | B738/M-SDE2E3FGHIRWXY/LB1 |
Departure
| Time | 2026-04-20 21:24 |
|---|---|
| Airport | Solidarity Szczecin–Goleniów Airport (EPSC) |
Arrival
| Time | N/A |
|---|---|
| Airport | Lublin Airport (EPLB) |
| Time | Latitude | Longitude | Altitude | Speed | Heading |
|---|---|---|---|---|---|
| 2026-04-20 21:08 | 53.59246 | 14.89398 | 131 ft | 0 kts | 48° |
| 2026-04-20 21:15 | 53.59242 | 14.89391 | 127 ft | 2 kts | 49° |
| 2026-04-20 21:16 | 53.59231 | 14.89370 | 125 ft | 2 kts | 50° |
| 2026-04-20 21:16 | 53.59221 | 14.89348 | 129 ft | 2 kts | 51° |
| 2026-04-20 21:16 | 53.59211 | 14.89326 | 125 ft | 2 kts | 54° |
| 2026-04-20 21:16 | 53.59201 | 14.89304 | 126 ft | 2 kts | 59° |
| 2026-04-20 21:17 | 53.59194 | 14.89279 | 126 ft | 2 kts | 73° |
| 2026-04-20 21:17 | 53.59193 | 14.89252 | 127 ft | 2 kts | 118° |
| 2026-04-20 21:17 | 53.59197 | 14.89241 | 127 ft | 0 kts | 129° |
| 2026-04-20 21:19 | 53.59178 | 14.89280 | 127 ft | 8 kts | 130° |
| 2026-04-20 21:19 | 53.59124 | 14.89383 | 132 ft | 15 kts | 131° |
| 2026-04-20 21:20 | 53.58933 | 14.89753 | 137 ft | 26 kts | 131° |
| 2026-04-20 21:20 | 53.58805 | 14.90002 | 141 ft | 29 kts | 130° |
| 2026-04-20 21:20 | 53.58678 | 14.90246 | 144 ft | 27 kts | 131° |
| 2026-04-20 21:20 | 53.58560 | 14.90476 | 148 ft | 25 kts | 131° |
| 2026-04-20 21:21 | 53.58450 | 14.90689 | 151 ft | 23 kts | 131° |
| 2026-04-20 21:21 | 53.58347 | 14.90889 | 154 ft | 22 kts | 130° |
| 2026-04-20 21:21 | 53.58247 | 14.91086 | 157 ft | 22 kts | 131° |
| 2026-04-20 21:21 | 53.58149 | 14.91276 | 159 ft | 21 kts | 131° |
| 2026-04-20 21:22 | 53.58051 | 14.91458 | 161 ft | 21 kts | 131° |
| 2026-04-20 21:22 | 53.57968 | 14.91621 | 163 ft | 10 kts | 130° |
| 2026-04-20 21:22 | 53.57923 | 14.91711 | 164 ft | 10 kts | 130° |
| 2026-04-20 21:22 | 53.57871 | 14.91779 | 164 ft | 10 kts | 171° |
| 2026-04-20 21:23 | 53.57814 | 14.91729 | 164 ft | 9 kts | 223° |
| 2026-04-20 21:23 | 53.57769 | 14.91654 | 164 ft | 9 kts | 232° |
| 2026-04-20 21:23 | 53.57783 | 14.91560 | 165 ft | 9 kts | 310° |
| 2026-04-20 21:23 | 53.57824 | 14.91479 | 164 ft | 11 kts | 311° |
| 2026-04-20 21:24 | 53.57985 | 14.91169 | 162 ft | 70 kts | 311° |
| 2026-04-20 21:24 | 53.58464 | 14.90242 | 149 ft | 136 kts | 310° |
| 2026-04-20 21:24 | 53.59162 | 14.88876 | 481 ft | 156 kts | 313° |
| 2026-04-20 21:24 | 53.59877 | 14.87495 | 1260 ft | 163 kts | 317° |
| 2026-04-20 21:25 | 53.60664 | 14.85987 | 1811 ft | 181 kts | 316° |
| 2026-04-20 21:25 | 53.61573 | 14.84219 | 2156 ft | 217 kts | 316° |
| 2026-04-20 21:25 | 53.62587 | 14.82257 | 2779 ft | 224 kts | 315° |
| 2026-04-20 21:25 | 53.63440 | 14.80030 | 3478 ft | 233 kts | 287° |
| 2026-04-20 21:26 | 53.63505 | 14.77266 | 3948 ft | 255 kts | 253° |
| 2026-04-20 21:26 | 53.62519 | 14.74707 | 4405 ft | 269 kts | 216° |
| 2026-04-20 21:26 | 53.61019 | 14.72792 | 5246 ft | 274 kts | 216° |
| 2026-04-20 21:26 | 53.59432 | 14.70957 | 6054 ft | 278 kts | 200° |
| 2026-04-20 21:27 | 53.57548 | 14.70440 | 6887 ft | 274 kts | 170° |
| 2026-04-20 21:27 | 53.55772 | 14.71453 | 7703 ft | 269 kts | 144° |
| 2026-04-20 21:27 | 53.54387 | 14.73526 | 8539 ft | 267 kts | 128° |
| 2026-04-20 21:27 | 53.53162 | 14.75912 | 9376 ft | 271 kts | 126° |
| 2026-04-20 21:28 | 53.51954 | 14.78317 | 10183 ft | 274 kts | 126° |
| 2026-04-20 21:28 | 53.50698 | 14.80809 | 10700 ft | 289 kts | 126° |
| 2026-04-20 21:28 | 53.49335 | 14.83500 | 10896 ft | 313 kts | 127° |
| 2026-04-20 21:28 | 53.47879 | 14.86344 | 11336 ft | 326 kts | 127° |
| 2026-04-20 21:29 | 53.46379 | 14.89248 | 12041 ft | 331 kts | 127° |
| 2026-04-20 21:29 | 53.44855 | 14.92191 | 12846 ft | 334 kts | 127° |
| 2026-04-20 21:29 | 53.43338 | 14.95118 | 13629 ft | 338 kts | 127° |
| 2026-04-20 21:29 | 53.41781 | 14.98125 | 14387 ft | 342 kts | 127° |
| 2026-04-20 21:30 | 53.40205 | 15.01166 | 15130 ft | 346 kts | 127° |
| 2026-04-20 21:30 | 53.38614 | 15.04237 | 15863 ft | 350 kts | 127° |
| 2026-04-20 21:30 | 53.37002 | 15.07342 | 16602 ft | 355 kts | 127° |
| 2026-04-20 21:30 | 53.35394 | 15.10438 | 17323 ft | 359 kts | 127° |
| 2026-04-20 21:31 | 53.33740 | 15.13617 | 18044 ft | 364 kts | 127° |
| 2026-04-20 21:31 | 53.32068 | 15.16827 | 18729 ft | 368 kts | 127° |
| 2026-04-20 21:31 | 53.30376 | 15.20072 | 19353 ft | 372 kts | 127° |
| 2026-04-20 21:31 | 53.28661 | 15.23355 | 19980 ft | 376 kts | 127° |
| 2026-04-20 21:32 | 53.26933 | 15.26658 | 20594 ft | 380 kts | 127° |
| 2026-04-20 21:32 | 53.25074 | 15.29871 | 21173 ft | 388 kts | 136° |
| 2026-04-20 21:32 | 53.22929 | 15.32677 | 21743 ft | 394 kts | 140° |
| 2026-04-20 21:32 | 53.20699 | 15.35378 | 22346 ft | 398 kts | 141° |
| 2026-04-20 21:33 | 53.18467 | 15.38044 | 22938 ft | 401 kts | 141° |
| 2026-04-20 21:33 | 53.16190 | 15.40786 | 23513 ft | 405 kts | 141° |
| 2026-04-20 21:33 | 53.13902 | 15.43576 | 24020 ft | 409 kts | 140° |
| 2026-04-20 21:33 | 53.11605 | 15.46403 | 24517 ft | 411 kts | 140° |
| 2026-04-20 21:34 | 53.09297 | 15.49261 | 24984 ft | 415 kts | 140° |
| 2026-04-20 21:34 | 53.06974 | 15.52143 | 25444 ft | 418 kts | 140° |
| 2026-04-20 21:34 | 53.04659 | 15.55016 | 25899 ft | 420 kts | 140° |
| 2026-04-20 21:34 | 53.02306 | 15.57933 | 26348 ft | 423 kts | 140° |
| 2026-04-20 21:35 | 52.99935 | 15.60870 | 26777 ft | 426 kts | 140° |
| 2026-04-20 21:35 | 52.97553 | 15.63814 | 27208 ft | 429 kts | 140° |
| 2026-04-20 21:35 | 52.95149 | 15.66781 | 27622 ft | 432 kts | 141° |
| 2026-04-20 21:35 | 52.92723 | 15.69769 | 28005 ft | 436 kts | 141° |
| 2026-04-20 21:36 | 52.90283 | 15.72772 | 28402 ft | 438 kts | 141° |
| 2026-04-20 21:36 | 52.87826 | 15.75792 | 28798 ft | 441 kts | 141° |
| 2026-04-20 21:36 | 52.85350 | 15.78829 | 29171 ft | 444 kts | 141° |
| 2026-04-20 21:36 | 52.82906 | 15.81985 | 29525 ft | 445 kts | 135° |
| 2026-04-20 21:37 | 52.80783 | 15.85634 | 29871 ft | 445 kts | 127° |
| 2026-04-20 21:37 | 52.79007 | 15.89841 | 30233 ft | 444 kts | 120° |
| 2026-04-20 21:37 | 52.77348 | 15.94165 | 30585 ft | 445 kts | 120° |
| 2026-04-20 21:37 | 52.75692 | 15.98511 | 30940 ft | 445 kts | 120° |
| 2026-04-20 21:38 | 52.74036 | 16.02835 | 31308 ft | 446 kts | 120° |
| 2026-04-20 21:38 | 52.72368 | 16.07150 | 31633 ft | 446 kts | 120° |
| 2026-04-20 21:38 | 52.70707 | 16.11414 | 31976 ft | 447 kts | 120° |
| 2026-04-20 21:38 | 52.69017 | 16.15725 | 32328 ft | 447 kts | 120° |
| 2026-04-20 21:39 | 52.67321 | 16.20034 | 32666 ft | 448 kts | 121° |
| 2026-04-20 21:39 | 52.65619 | 16.24347 | 33025 ft | 448 kts | 121° |
| 2026-04-20 21:39 | 52.63915 | 16.28657 | 33331 ft | 450 kts | 121° |
| 2026-04-20 21:39 | 52.62206 | 16.32976 | 33636 ft | 451 kts | 121° |
| 2026-04-20 21:40 | 52.60490 | 16.37302 | 33971 ft | 451 kts | 121° |
| 2026-04-20 21:40 | 52.58774 | 16.41622 | 34237 ft | 452 kts | 121° |
| 2026-04-20 21:40 | 52.57048 | 16.45963 | 34426 ft | 455 kts | 121° |
| 2026-04-20 21:40 | 52.55334 | 16.50265 | 34707 ft | 455 kts | 121° |
| 2026-04-20 21:41 | 52.53602 | 16.54604 | 34996 ft | 454 kts | 121° |
| 2026-04-20 21:41 | 52.51864 | 16.58950 | 35169 ft | 456 kts | 121° |
| 2026-04-20 21:41 | 52.50112 | 16.63327 | 35155 ft | 460 kts | 121° |
| 2026-04-20 21:42 | 52.46596 | 16.72090 | 35154 ft | 457 kts | 121° |
| 2026-04-20 21:42 | 52.43141 | 16.80755 | 35152 ft | 451 kts | 118° |
| 2026-04-20 21:43 | 52.40833 | 16.90216 | 35175 ft | 447 kts | 103° |
| 2026-04-20 21:43 | 52.39198 | 17.00052 | 35163 ft | 448 kts | 103° |
| 2026-04-20 21:44 | 52.37553 | 17.09892 | 35162 ft | 449 kts | 103° |
| 2026-04-20 21:44 | 52.35863 | 17.19736 | 35165 ft | 450 kts | 104° |
| 2026-04-20 21:45 | 52.34154 | 17.29536 | 35158 ft | 450 kts | 104° |
| 2026-04-20 21:45 | 52.32421 | 17.39398 | 35159 ft | 451 kts | 104° |
| 2026-04-20 21:46 | 52.30679 | 17.49262 | 35156 ft | 451 kts | 104° |
| 2026-04-20 21:46 | 52.28932 | 17.59106 | 35163 ft | 451 kts | 104° |
| 2026-04-20 21:47 | 52.27185 | 17.68896 | 35153 ft | 451 kts | 104° |
| 2026-04-20 21:47 | 52.25420 | 17.78734 | 35153 ft | 451 kts | 104° |
| 2026-04-20 21:48 | 52.23648 | 17.88555 | 35152 ft | 451 kts | 104° |
| 2026-04-20 21:48 | 52.21866 | 17.98381 | 35153 ft | 451 kts | 104° |
| 2026-04-20 21:49 | 52.20080 | 18.08178 | 35154 ft | 450 kts | 104° |
| 2026-04-20 21:49 | 52.18285 | 18.17968 | 35148 ft | 450 kts | 105° |
| 2026-04-20 21:50 | 52.16492 | 18.27701 | 35143 ft | 450 kts | 105° |
| 2026-04-20 21:50 | 52.14683 | 18.37465 | 35144 ft | 450 kts | 105° |
| 2026-04-20 21:51 | 52.12867 | 18.47214 | 35143 ft | 450 kts | 105° |
| 2026-04-20 21:51 | 52.11042 | 18.56968 | 35146 ft | 450 kts | 105° |
| 2026-04-20 21:52 | 52.09209 | 18.66707 | 35142 ft | 450 kts | 105° |
| 2026-04-20 21:52 | 52.07366 | 18.76449 | 35139 ft | 450 kts | 105° |
| 2026-04-20 21:53 | 52.05528 | 18.86122 | 35136 ft | 450 kts | 105° |
| 2026-04-20 21:53 | 52.03668 | 18.95856 | 35147 ft | 450 kts | 105° |
| 2026-04-20 21:54 | 52.01806 | 19.05559 | 35131 ft | 451 kts | 105° |
| 2026-04-20 21:54 | 51.99904 | 19.15286 | 35123 ft | 451 kts | 108° |
| 2026-04-20 21:55 | 51.97468 | 19.24679 | 35127 ft | 452 kts | 112° |
| 2026-04-20 21:55 | 51.95290 | 19.32401 | 35116 ft | 453 kts | 113° |
| 2026-04-20 21:56 | 51.92681 | 19.41698 | 35113 ft | 453 kts | 112° |
| 2026-04-20 21:56 | 51.90102 | 19.51022 | 35110 ft | 453 kts | 112° |
| 2026-04-20 21:57 | 51.87534 | 19.60340 | 35109 ft | 453 kts | 112° |
| 2026-04-20 21:57 | 51.84978 | 19.69595 | 35120 ft | 453 kts | 112° |
| 2026-04-20 21:58 | 51.82398 | 19.78893 | 35118 ft | 453 kts | 112° |
| 2026-04-20 21:58 | 51.79809 | 19.88182 | 35111 ft | 453 kts | 113° |
| 2026-04-20 21:59 | 51.77208 | 19.97477 | 34914 ft | 456 kts | 113° |
| 2026-04-20 21:59 | 51.75894 | 20.02159 | 34389 ft | 457 kts | 113° |
| 2026-04-20 21:59 | 51.74580 | 20.06831 | 33810 ft | 455 kts | 113° |
| 2026-04-20 21:59 | 51.73277 | 20.11451 | 33335 ft | 450 kts | 113° |
| 2026-04-20 22:00 | 51.72004 | 20.15959 | 32891 ft | 444 kts | 113° |
| 2026-04-20 22:00 | 51.70725 | 20.20477 | 32434 ft | 440 kts | 113° |
| 2026-04-20 22:00 | 51.69459 | 20.24944 | 32009 ft | 435 kts | 113° |
| 2026-04-20 22:00 | 51.68205 | 20.29359 | 31563 ft | 431 kts | 113° |
| 2026-04-20 22:01 | 51.66962 | 20.33728 | 31119 ft | 427 kts | 113° |
| 2026-04-20 22:01 | 51.65726 | 20.38064 | 30694 ft | 423 kts | 113° |
| 2026-04-20 22:01 | 51.64504 | 20.42345 | 30273 ft | 419 kts | 113° |
| 2026-04-20 22:01 | 51.63288 | 20.46595 | 29782 ft | 416 kts | 113° |
| 2026-04-20 22:02 | 51.62083 | 20.50800 | 29352 ft | 410 kts | 113° |
| 2026-04-20 22:02 | 51.60894 | 20.54944 | 28922 ft | 405 kts | 113° |
| 2026-04-20 22:02 | 51.59716 | 20.59040 | 28496 ft | 400 kts | 113° |
| 2026-04-20 22:02 | 51.58567 | 20.63028 | 28084 ft | 396 kts | 113° |
| 2026-04-20 22:03 | 51.57415 | 20.67019 | 27680 ft | 392 kts | 113° |
| 2026-04-20 22:03 | 51.56268 | 20.70989 | 27244 ft | 388 kts | 113° |
| 2026-04-20 22:03 | 51.55135 | 20.74904 | 26847 ft | 385 kts | 113° |
| 2026-04-20 22:03 | 51.54008 | 20.78792 | 26423 ft | 382 kts | 113° |
| 2026-04-20 22:04 | 51.52887 | 20.82653 | 26030 ft | 379 kts | 113° |
| 2026-04-20 22:04 | 51.51775 | 20.86475 | 25634 ft | 376 kts | 113° |
| 2026-04-20 22:04 | 51.50670 | 20.90270 | 25236 ft | 373 kts | 113° |
| 2026-04-20 22:04 | 51.49587 | 20.93979 | 24858 ft | 371 kts | 113° |
| 2026-04-20 22:05 | 51.48496 | 20.97714 | 24468 ft | 368 kts | 113° |
| 2026-04-20 22:05 | 51.47411 | 21.01420 | 24086 ft | 366 kts | 113° |
| 2026-04-20 22:05 | 51.46329 | 21.05113 | 23702 ft | 364 kts | 113° |
| 2026-04-20 22:05 | 51.45250 | 21.08787 | 23264 ft | 363 kts | 113° |
| 2026-04-20 22:06 | 51.44178 | 21.12434 | 22833 ft | 360 kts | 113° |
| 2026-04-20 22:06 | 51.43115 | 21.16046 | 22463 ft | 357 kts | 113° |
| 2026-04-20 22:06 | 51.42060 | 21.19627 | 22081 ft | 354 kts | 113° |
| 2026-04-20 22:06 | 51.41010 | 21.23180 | 21681 ft | 351 kts | 114° |
| 2026-04-20 22:07 | 51.39958 | 21.26698 | 21322 ft | 348 kts | 116° |
| 2026-04-20 22:07 | 51.38753 | 21.30054 | 20979 ft | 346 kts | 120° |
| 2026-04-20 22:07 | 51.37489 | 21.33318 | 20595 ft | 344 kts | 120° |
| 2026-04-20 22:07 | 51.36218 | 21.36546 | 20221 ft | 342 kts | 120° |
| 2026-04-20 22:08 | 51.34954 | 21.39757 | 19846 ft | 340 kts | 120° |
| 2026-04-20 22:08 | 51.33717 | 21.42913 | 19482 ft | 338 kts | 120° |
| 2026-04-20 22:08 | 51.32472 | 21.46099 | 19122 ft | 337 kts | 120° |
| 2026-04-20 22:08 | 51.31234 | 21.49277 | 18769 ft | 335 kts | 120° |
| 2026-04-20 22:09 | 51.30005 | 21.52436 | 18404 ft | 334 kts | 120° |
| 2026-04-20 22:09 | 51.28779 | 21.55585 | 17988 ft | 333 kts | 120° |
| 2026-04-20 22:09 | 51.27558 | 21.58720 | 17596 ft | 331 kts | 120° |
| 2026-04-20 22:09 | 51.26346 | 21.61832 | 17229 ft | 329 kts | 120° |
| 2026-04-20 22:10 | 51.25153 | 21.64887 | 16862 ft | 326 kts | 120° |
| 2026-04-20 22:10 | 51.23957 | 21.67950 | 16505 ft | 324 kts | 120° |
| 2026-04-20 22:10 | 51.22765 | 21.70997 | 16146 ft | 323 kts | 120° |
| 2026-04-20 22:10 | 51.21578 | 21.74030 | 15791 ft | 321 kts | 120° |
| 2026-04-20 22:11 | 51.20398 | 21.77042 | 15435 ft | 319 kts | 120° |
| 2026-04-20 22:11 | 51.19226 | 21.80031 | 15083 ft | 317 kts | 120° |
| 2026-04-20 22:11 | 51.18058 | 21.83005 | 14733 ft | 316 kts | 120° |
| 2026-04-20 22:11 | 51.16891 | 21.85970 | 14388 ft | 314 kts | 120° |
| 2026-04-20 22:12 | 51.15749 | 21.88933 | 14047 ft | 312 kts | 115° |
| 2026-04-20 22:12 | 51.15180 | 21.92219 | 13660 ft | 306 kts | 90° |
| 2026-04-20 22:12 | 51.15395 | 21.95511 | 13308 ft | 300 kts | 76° |
| 2026-04-20 22:12 | 51.15833 | 21.98759 | 12942 ft | 299 kts | 76° |
| 2026-04-20 22:13 | 51.16269 | 22.01986 | 12590 ft | 297 kts | 76° |
| 2026-04-20 22:13 | 51.16689 | 22.05203 | 12225 ft | 295 kts | 76° |
| 2026-04-20 22:13 | 51.17100 | 22.08402 | 11891 ft | 293 kts | 77° |
| 2026-04-20 22:13 | 51.17504 | 22.11581 | 11555 ft | 291 kts | 77° |
| 2026-04-20 22:14 | 51.17903 | 22.14738 | 11211 ft | 290 kts | 77° |
| 2026-04-20 22:14 | 51.18299 | 22.17880 | 10868 ft | 288 kts | 77° |
| 2026-04-20 22:14 | 51.18692 | 22.21010 | 10542 ft | 287 kts | 77° |
| 2026-04-20 22:14 | 51.19077 | 22.24087 | 10402 ft | 278 kts | 77° |
| 2026-04-20 22:15 | 51.19449 | 22.27058 | 10277 ft | 269 kts | 77° |
| 2026-04-20 22:15 | 51.19810 | 22.29945 | 10161 ft | 261 kts | 77° |
| 2026-04-20 22:15 | 51.20155 | 22.32712 | 9961 ft | 256 kts | 77° |
| 2026-04-20 22:15 | 51.20501 | 22.35490 | 9678 ft | 254 kts | 77° |
| 2026-04-20 22:16 | 51.20843 | 22.38242 | 9406 ft | 252 kts | 77° |
| 2026-04-20 22:16 | 51.21227 | 22.40970 | 9078 ft | 251 kts | 68° |
| 2026-04-20 22:16 | 51.22170 | 22.43272 | 8810 ft | 250 kts | 47° |
| 2026-04-20 22:16 | 51.23414 | 22.45252 | 8549 ft | 253 kts | 44° |
| 2026-04-20 22:17 | 51.24699 | 22.47188 | 8284 ft | 254 kts | 44° |
| 2026-04-20 22:17 | 51.25974 | 22.49126 | 8013 ft | 252 kts | 44° |
| 2026-04-20 22:17 | 51.27233 | 22.51061 | 7746 ft | 249 kts | 45° |
| 2026-04-20 22:17 | 51.28469 | 22.52975 | 7493 ft | 246 kts | 45° |
| 2026-04-20 22:18 | 51.29677 | 22.54851 | 7250 ft | 244 kts | 46° |
| 2026-04-20 22:18 | 51.30604 | 22.57067 | 6988 ft | 240 kts | 71° |
| 2026-04-20 22:18 | 51.30993 | 22.59639 | 6762 ft | 237 kts | 79° |
| 2026-04-20 22:18 | 51.31237 | 22.62238 | 6537 ft | 235 kts | 81° |
| 2026-04-20 22:19 | 51.31458 | 22.64786 | 6303 ft | 227 kts | 81° |
| 2026-04-20 22:19 | 51.31674 | 22.67248 | 6042 ft | 219 kts | 81° |
| 2026-04-20 22:19 | 51.31885 | 22.69610 | 5808 ft | 211 kts | 81° |
| 2026-04-20 22:19 | 51.32090 | 22.71873 | 5608 ft | 203 kts | 81° |